Terminal Aerodrome Forecast
Issued by NWS

Home | Current Version | Previous Version | Text Only | Print | Product List | Glossary On
Versions: 1 2 3 4 5 6 7 8 9 10 11 12 13
000
FTUS43 KAPX 290520
TAFTVC
TAF
KTVC 290520Z 2906/3006 04006KT P6SM VCSH BKN050 OVC100
     FM291200 07004KT P6SM BKN100
     FM291600 04008KT P6SM SCT100
     FM300100 00000KT P6SM FEW070=

USA.gov is the U.S. government's official web portal to all federal, state and local government web resources and services.